createdAt,value
2023-05-11T00:00:34.579Z,4
2023-05-11T00:01:42.898Z,4
2023-05-11T00:02:51.317Z,4
2023-05-11T00:03:59.773Z,3.7
2023-05-11T00:05:08.035Z,3.7
2023-05-11T00:06:16.360Z,3.7
2023-05-11T00:07:24.880Z,3.8
2023-05-11T00:08:33.187Z,3.8
2023-05-11T00:09:41.524Z,3.8
2023-05-11T00:10:50.043Z,3.9
2023-05-11T00:11:58.359Z,3.9
2023-05-11T00:13:06.700Z,3.9
2023-05-11T00:14:15.209Z,4.1
2023-05-11T00:15:23.542Z,4.1
2023-05-11T00:16:31.959Z,4.1
2023-05-11T00:17:40.363Z,3.9
2023-05-11T00:18:48.740Z,3.9
2023-05-11T00:19:56.958Z,3.9
2023-05-11T00:21:05.498Z,3.8
2023-05-11T00:22:13.799Z,3.8
2023-05-11T00:23:22.133Z,3.8
2023-05-11T00:24:30.630Z,4.5
2023-05-11T00:25:38.957Z,4.5
2023-05-11T00:26:47.287Z,4.5
2023-05-11T00:27:55.810Z,3.9
2023-05-11T00:29:04.100Z,3.9
2023-05-11T00:30:12.398Z,3.9
2023-05-11T00:31:20.965Z,3.5
2023-05-11T00:32:29.348Z,3.5
2023-05-11T00:33:37.609Z,3.5
2023-05-11T00:34:46.109Z,3.7
2023-05-11T00:35:54.416Z,3.7
2023-05-11T00:37:02.764Z,3.7
2023-05-11T00:38:11.224Z,3.7
2023-05-11T00:39:19.542Z,3.7
2023-05-11T00:40:27.857Z,3.7
2023-05-11T00:41:36.369Z,3.9
2023-05-11T00:42:44.667Z,3.9
2023-05-11T00:43:52.977Z,3.9
2023-05-11T00:45:01.511Z,4.1
2023-05-11T00:46:09.806Z,4.1
2023-05-11T00:47:18.134Z,4.1
2023-05-11T00:48:26.624Z,4
2023-05-11T00:49:34.921Z,4
2023-05-11T00:50:43.225Z,4
2023-05-11T00:51:51.748Z,3.4
2023-05-11T00:53:00.032Z,3.4
2023-05-11T00:54:08.361Z,3.4
2023-05-11T00:55:16.897Z,3.7
2023-05-11T00:56:25.209Z,3.7
2023-05-11T00:57:33.522Z,3.7
2023-05-11T00:58:42.071Z,3.5
2023-05-11T00:59:50.390Z,3.5
2023-05-11T01:00:58.733Z,3.5
2023-05-11T01:02:07.240Z,3.5
2023-05-11T01:03:15.607Z,3.5
2023-05-11T01:04:23.904Z,3.5
2023-05-11T01:05:32.405Z,3.5
2023-05-11T01:06:40.713Z,3.5
2023-05-11T01:07:49.013Z,3.5
2023-05-11T01:08:57.541Z,4
2023-05-11T01:10:05.866Z,4
2023-05-11T01:11:14.162Z,4
2023-05-11T01:12:22.681Z,3.9
2023-05-11T01:15:50.994Z,3.9
2023-05-11T01:16:59.546Z,3.8
2023-05-11T01:18:07.869Z,3.8
2023-05-11T01:19:16.185Z,3.8
2023-05-11T01:20:24.691Z,3.8
2023-05-11T01:21:33.015Z,3.8
2023-05-11T01:22:41.370Z,3.8
2023-05-11T01:23:49.872Z,4
2023-05-11T01:24:58.214Z,4
2023-05-11T01:26:06.541Z,4
2023-05-11T01:27:15.071Z,3.7
2023-05-11T01:28:23.393Z,3.7
2023-05-11T01:29:31.714Z,3.7
2023-05-11T01:30:40.241Z,3.9
2023-05-11T01:31:48.599Z,3.9
2023-05-11T01:32:56.968Z,3.9
2023-05-11T01:34:05.441Z,3.8
2023-05-11T01:35:13.788Z,3.8
2023-05-11T01:36:22.089Z,3.8
2023-05-11T01:37:30.613Z,3.6
2023-05-11T01:38:38.931Z,3.6
2023-05-11T01:39:47.260Z,3.6
2023-05-11T01:40:55.820Z,3.8
2023-05-11T01:42:04.156Z,3.8
2023-05-11T01:43:12.475Z,3.8
2023-05-11T01:44:21.012Z,3.6
2023-05-11T01:45:29.348Z,3.6
2023-05-11T01:46:37.705Z,3.6
2023-05-11T01:47:46.253Z,3.5
2023-05-11T01:48:54.538Z,3.5
2023-05-11T01:50:02.883Z,3.5
2023-05-11T01:51:11.466Z,3.7
2023-05-11T01:52:19.753Z,3.7
2023-05-11T01:53:28.084Z,3.7
2023-05-11T01:54:36.613Z,3.6
2023-05-11T01:55:44.933Z,3.6
2023-05-11T01:56:53.251Z,3.6
2023-05-11T01:58:01.786Z,3.8
2023-05-11T01:59:10.093Z,3.8
2023-05-11T02:00:18.562Z,3.8
2023-05-11T02:01:26.978Z,3.7
2023-05-11T02:02:35.332Z,3.7
2023-05-11T02:03:43.628Z,3.7
2023-05-11T02:04:52.141Z,3.6
2023-05-11T02:06:00.457Z,3.6
2023-05-11T02:07:08.801Z,3.6
2023-05-11T02:08:17.317Z,4.1
2023-05-11T02:09:25.661Z,4.1
2023-05-11T02:10:33.991Z,4.1
2023-05-11T02:11:42.512Z,3.9
2023-05-11T02:12:50.845Z,3.9
2023-05-11T02:13:59.177Z,3.9
2023-05-11T02:15:07.721Z,3.7
2023-05-11T02:16:16.069Z,3.7
2023-05-11T02:17:24.416Z,3.7
2023-05-11T02:18:32.918Z,3.4
2023-05-11T02:19:41.207Z,3.4
2023-05-11T02:20:49.536Z,3.4
2023-05-11T02:21:58.068Z,3.4
2023-05-11T02:23:06.399Z,3.4
2023-05-11T02:24:14.731Z,3.4
2023-05-11T02:25:23.265Z,3.3
2023-05-11T02:26:31.615Z,3.3
2023-05-11T02:27:39.956Z,3.3
2023-05-11T02:28:48.515Z,3.3
2023-05-11T02:29:56.827Z,3.3
2023-05-11T02:31:05.163Z,3.3
2023-05-11T02:32:13.689Z,3.8
2023-05-11T02:33:22.043Z,3.8
2023-05-11T02:34:30.367Z,3.8
2023-05-11T02:35:38.907Z,4
2023-05-11T02:36:47.211Z,4
2023-05-11T02:37:55.574Z,4
2023-05-11T02:39:04.119Z,4.1
2023-05-11T02:40:12.407Z,4.1
2023-05-11T02:41:20.732Z,4.1
2023-05-11T02:42:29.270Z,4.2
2023-05-11T02:43:37.586Z,4.2
2023-05-11T02:44:45.901Z,4.2
2023-05-11T02:45:54.422Z,4
2023-05-11T02:47:02.804Z,4
2023-05-11T02:48:11.095Z,4
2023-05-11T02:49:19.616Z,4
2023-05-11T02:50:27.933Z,4
2023-05-11T02:51:36.273Z,4
2023-05-11T02:52:44.793Z,3.7
2023-05-11T02:53:53.133Z,3.7
2023-05-11T02:55:01.481Z,3.7
2023-05-11T02:56:09.983Z,4
2023-05-11T02:57:18.326Z,4
2023-05-11T02:58:26.697Z,4
2023-05-11T02:59:35.184Z,4.4
2023-05-11T03:00:43.542Z,4.4
2023-05-11T03:01:51.886Z,4.4
2023-05-11T03:03:00.449Z,3.9
2023-05-11T03:04:08.679Z,3.9
2023-05-11T03:05:17.018Z,3.9
2023-05-11T03:06:25.544Z,4.2
2023-05-11T03:07:33.864Z,4.2
2023-05-11T03:08:42.191Z,4.2
2023-05-11T03:09:50.696Z,4.2
2023-05-11T03:10:59.049Z,4.2
2023-05-11T03:12:07.343Z,4.2
2023-05-11T03:13:15.883Z,4.2
2023-05-11T03:14:24.202Z,4.2
2023-05-11T03:15:32.565Z,4.2
2023-05-11T03:16:41.083Z,4.7
2023-05-11T03:17:49.410Z,4.7
2023-05-11T03:18:57.748Z,4.7
2023-05-11T03:20:06.256Z,4.6
2023-05-11T03:21:14.568Z,4.6
2023-05-11T03:22:22.886Z,4.6
2023-05-11T03:23:31.413Z,4.7
2023-05-11T03:24:39.752Z,4.7
2023-05-11T03:25:48.091Z,4.7
2023-05-11T03:26:56.644Z,4.7
2023-05-11T03:28:04.935Z,4.7
2023-05-11T03:29:13.257Z,4.7
2023-05-11T03:30:21.793Z,4.7
2023-05-11T03:31:30.143Z,4.7
2023-05-11T03:32:38.528Z,4.7
2023-05-11T03:33:46.957Z,4.6
2023-05-11T03:34:55.288Z,4.6
2023-05-11T03:36:03.609Z,4.6
2023-05-11T03:37:12.136Z,5.2
2023-05-11T03:38:20.459Z,5.2
2023-05-11T03:39:28.782Z,5.2
2023-05-11T03:40:37.325Z,5.4
2023-05-11T03:41:45.640Z,5.4
2023-05-11T03:42:53.983Z,5.4
2023-05-11T03:44:02.495Z,5
2023-05-11T03:45:10.813Z,5
2023-05-11T03:46:19.205Z,5
2023-05-11T03:47:27.693Z,6.1
2023-05-11T03:48:36.015Z,6.1
2023-05-11T03:49:44.359Z,6.1
2023-05-11T03:50:52.864Z,6.3
2023-05-11T03:52:01.190Z,6.3
2023-05-11T03:53:09.518Z,6.3
2023-05-11T03:54:18.065Z,6.8
2023-05-11T03:55:26.386Z,6.8
2023-05-11T03:56:34.702Z,6.8
2023-05-11T03:57:43.232Z,6.5
2023-05-11T03:58:51.588Z,6.5
2023-05-11T03:59:59.888Z,6.5
2023-05-11T04:01:08.413Z,5.7
2023-05-11T04:02:16.764Z,5.7
2023-05-11T04:03:25.246Z,5.7
2023-05-11T04:04:33.599Z,4.4
2023-05-11T04:05:41.919Z,4.4
2023-05-11T04:06:50.239Z,4.4
2023-05-11T04:07:58.777Z,4.3
2023-05-11T04:09:07.089Z,4.3
2023-05-11T04:10:15.423Z,4.3
2023-05-11T04:11:23.961Z,4.2
2023-05-11T04:12:32.285Z,4.2
2023-05-11T04:13:40.597Z,4.2
2023-05-11T04:14:49.166Z,5.2
2023-05-11T04:15:57.492Z,5.2
2023-05-11T04:17:05.820Z,5.2
2023-05-11T04:18:14.343Z,5.7
2023-05-11T04:19:22.675Z,5.7
2023-05-11T04:20:30.979Z,5.7
2023-05-11T04:21:39.530Z,5.7
2023-05-11T04:22:47.871Z,5.7
2023-05-11T04:23:56.213Z,5.7
2023-05-11T04:25:04.740Z,4.3
2023-05-11T04:26:13.069Z,4.3
2023-05-11T04:27:21.397Z,4.3
2023-05-11T04:28:29.920Z,3.8
2023-05-11T04:29:38.278Z,3.8
2023-05-11T04:30:46.629Z,3.8
2023-05-11T04:31:55.201Z,3.6
2023-05-11T04:33:03.492Z,3.6
2023-05-11T04:34:11.775Z,3.6
2023-05-11T04:35:20.308Z,3.2
2023-05-11T04:36:28.644Z,3.2
2023-05-11T04:37:36.960Z,3.2
2023-05-11T04:38:45.498Z,2.8
2023-05-11T04:39:53.858Z,2.8
2023-05-11T04:41:02.166Z,2.8
2023-05-11T04:42:10.701Z,2.5
2023-05-11T04:43:19.015Z,2.5
2023-05-11T04:44:27.350Z,2.5
2023-05-11T04:45:35.898Z,2.8
2023-05-11T04:46:44.244Z,2.8
2023-05-11T04:47:52.539Z,2.8
2023-05-11T04:49:01.043Z,2.8
2023-05-11T04:50:09.387Z,2.8
2023-05-11T04:51:17.701Z,2.8
2023-05-11T04:52:26.221Z,3
2023-05-11T04:53:34.534Z,3
2023-05-11T04:54:42.859Z,3
2023-05-11T04:55:51.411Z,3.1
2023-05-11T04:56:59.716Z,3.1
2023-05-11T04:58:08.060Z,3.1
2023-05-11T04:59:16.573Z,2.7
2023-05-11T05:00:24.922Z,2.7
2023-05-11T05:01:33.363Z,2.7
2023-05-11T05:02:41.846Z,3.1
2023-05-11T05:03:50.155Z,3.1
2023-05-11T05:04:58.439Z,3.1
2023-05-11T05:06:06.969Z,3.1
2023-05-11T05:07:15.303Z,3.1
2023-05-11T05:08:23.639Z,3.1
2023-05-11T05:09:32.181Z,3.4
2023-05-11T05:10:40.515Z,3.4
2023-05-11T05:11:48.841Z,3.4
2023-05-11T05:12:57.398Z,3.6
2023-05-11T05:14:05.735Z,3.6
2023-05-11T05:15:14.071Z,3.6
2023-05-11T05:16:22.619Z,3.8
2023-05-11T05:17:30.969Z,3.8
2023-05-11T05:18:39.332Z,3.8
2023-05-11T05:19:47.796Z,4.1
2023-05-11T05:20:56.117Z,4.1
2023-05-11T05:22:04.431Z,4.1
2023-05-11T05:23:12.966Z,3.8
2023-05-11T05:24:21.299Z,3.8
2023-05-11T05:25:29.605Z,3.8
2023-05-11T05:26:38.139Z,3.6
2023-05-11T05:27:46.456Z,3.6
2023-05-11T05:28:54.774Z,3.6
2023-05-11T05:30:03.311Z,3.6
2023-05-11T05:31:11.659Z,3.6
2023-05-11T05:32:19.974Z,3.6
2023-05-11T05:33:28.509Z,3.7
2023-05-11T05:34:36.851Z,3.7
2023-05-11T05:35:45.147Z,3.7
2023-05-11T05:36:53.708Z,4.1
2023-05-11T05:38:02.035Z,4.1
2023-05-11T05:39:10.353Z,4.1
2023-05-11T05:40:19.021Z,3.8
2023-05-11T05:41:27.199Z,3.8
2023-05-11T05:42:35.538Z,3.8
2023-05-11T05:43:44.061Z,3.9
2023-05-11T05:44:52.391Z,3.9
2023-05-11T05:46:00.737Z,3.9
2023-05-11T05:47:09.258Z,4.4
2023-05-11T05:48:17.592Z,4.4
2023-05-11T05:49:25.925Z,4.4
2023-05-11T05:50:34.508Z,7.5
2023-05-11T05:51:42.813Z,7.5
2023-05-11T05:52:51.138Z,7.5
2023-05-11T05:53:59.678Z,3.9
2023-05-11T05:55:07.990Z,3.9
2023-05-11T05:56:16.334Z,3.9
2023-05-11T05:57:24.877Z,4.3
2023-05-11T05:58:33.191Z,4.3
2023-05-11T05:59:41.527Z,4.3
2023-05-11T06:00:50.096Z,3.3
2023-05-11T06:01:58.431Z,3.3
2023-05-11T06:03:06.787Z,3.3
2023-05-11T06:04:15.448Z,3
2023-05-11T06:05:23.742Z,3
2023-05-11T06:06:32.093Z,3
2023-05-11T06:07:40.597Z,3.3
2023-05-11T06:08:48.907Z,3.3
2023-05-11T06:09:57.253Z,3.3
2023-05-11T06:11:05.774Z,2.8
2023-05-11T06:12:14.114Z,2.8
2023-05-11T06:13:22.456Z,2.8
2023-05-11T06:14:31.004Z,3.3
2023-05-11T06:15:41.161Z,3.3
2023-05-11T06:16:47.711Z,3.3
2023-05-11T06:17:56.323Z,4
2023-05-11T06:19:04.694Z,4
2023-05-11T06:20:12.911Z,4
2023-05-11T06:21:21.458Z,3.2
2023-05-11T06:22:29.801Z,3.2
2023-05-11T06:23:38.119Z,3.2
2023-05-11T06:24:46.648Z,3.2
2023-05-11T06:25:54.976Z,3.2
2023-05-11T06:27:03.328Z,3.2
2023-05-11T06:28:11.878Z,3.3
2023-05-11T06:29:20.214Z,3.3
2023-05-11T06:30:28.530Z,3.3
2023-05-11T06:31:37.110Z,3
2023-05-11T06:32:45.403Z,3
2023-05-11T06:33:53.724Z,3
2023-05-11T06:35:02.239Z,3.6
2023-05-11T06:36:10.564Z,3.6
2023-05-11T06:37:18.903Z,3.6
2023-05-11T06:38:27.443Z,2.5
2023-05-11T06:39:35.755Z,2.5
2023-05-11T06:40:44.069Z,2.5
2023-05-11T06:41:53.565Z,1.5
2023-05-11T06:43:00.963Z,1.5
2023-05-11T06:44:09.284Z,1.5
2023-05-11T06:45:17.838Z,2
2023-05-11T06:46:26.269Z,2
2023-05-11T06:47:34.473Z,2
2023-05-11T06:48:42.976Z,1.6
2023-05-11T06:49:51.310Z,1.6
2023-05-11T06:50:59.653Z,1.6
2023-05-11T06:52:08.189Z,1.7
2023-05-11T06:53:16.514Z,1.7
2023-05-11T06:54:24.870Z,1.7
2023-05-11T06:55:33.386Z,2.3
2023-05-11T06:56:41.703Z,2.3
2023-05-11T06:57:50.044Z,2.3
2023-05-11T06:58:58.619Z,1.3
2023-05-11T07:00:06.946Z,1.3
2023-05-11T07:01:15.337Z,1.3
2023-05-11T07:02:23.822Z,1.3
2023-05-11T07:03:32.141Z,1.3
2023-05-11T07:04:40.509Z,1.3
2023-05-11T07:05:49.031Z,1.4
2023-05-11T07:06:57.344Z,1.4
2023-05-11T07:08:05.665Z,1.4
2023-05-11T07:09:14.222Z,1
2023-05-11T07:10:22.552Z,1
2023-05-11T07:11:30.875Z,1
2023-05-11T07:12:39.428Z,0.9
2023-05-11T07:13:47.759Z,0.9
2023-05-11T07:14:56.092Z,0.9
2023-05-11T07:16:04.625Z,3.4
2023-05-11T07:17:13.047Z,3.4
2023-05-11T07:18:21.361Z,3.4
2023-05-11T07:19:29.884Z,3.8
2023-05-11T07:20:38.212Z,3.8
2023-05-11T07:21:46.520Z,3.8
2023-05-11T07:22:55.068Z,2.3
2023-05-11T07:24:03.402Z,2.3
2023-05-11T07:25:13.046Z,2.3
2023-05-11T07:26:21.605Z,1.1
2023-05-11T07:27:29.928Z,1.1
2023-05-11T07:28:38.254Z,1.1
2023-05-11T07:29:46.801Z,0.9
2023-05-11T07:30:55.136Z,0.9
2023-05-11T07:32:03.474Z,0.9
2023-05-11T07:33:12.038Z,1
2023-05-11T07:34:20.352Z,1
2023-05-11T07:35:28.683Z,1
2023-05-11T07:36:37.208Z,1.1
2023-05-11T07:37:45.528Z,1.1
2023-05-11T07:38:53.859Z,1.1
2023-05-11T07:40:02.397Z,1.1
2023-05-11T07:41:12.414Z,1.1
2023-05-11T07:42:19.508Z,1.1
2023-05-11T07:43:27.585Z,0.8
2023-05-11T07:44:35.930Z,0.8
2023-05-11T07:45:44.274Z,0.8
2023-05-11T07:46:52.796Z,1.1
2023-05-11T07:48:01.170Z,1.1
2023-05-11T07:49:16.958Z,1.1
2023-05-11T07:50:18.157Z,2
2023-05-11T07:51:26.299Z,2
2023-05-11T07:52:34.632Z,2
2023-05-11T07:53:43.158Z,1.2
2023-05-11T07:54:51.484Z,1.2
2023-05-11T07:55:59.810Z,1.2
2023-05-11T07:57:08.385Z,1.4
2023-05-11T07:58:16.758Z,1.4
2023-05-11T07:59:25.035Z,1.4
2023-05-11T08:00:33.576Z,1.5
2023-05-11T08:01:41.938Z,1.5
2023-05-11T08:02:50.360Z,1.5
2023-05-11T08:03:58.807Z,2.6
2023-05-11T08:05:07.121Z,2.6
2023-05-11T08:06:15.504Z,2.6
2023-05-11T08:07:23.979Z,1.3
2023-05-11T08:08:32.301Z,1.3
2023-05-11T08:09:40.617Z,1.3
2023-05-11T08:10:49.147Z,1.6
2023-05-11T08:11:57.479Z,1.6
2023-05-11T08:13:05.845Z,1.6
2023-05-11T08:14:14.434Z,1.6
2023-05-11T08:15:22.688Z,1.6
2023-05-11T08:16:31.054Z,1.6
2023-05-11T08:17:39.612Z,1.9
2023-05-11T08:18:47.970Z,1.9
2023-05-11T08:19:56.266Z,1.9
2023-05-11T08:21:04.822Z,1
2023-05-11T08:22:13.150Z,1
2023-05-11T08:23:21.501Z,1
2023-05-11T08:24:30.031Z,2.5
2023-05-11T08:25:38.377Z,2.5
2023-05-11T08:26:46.728Z,2.5
2023-05-11T08:27:55.251Z,1
2023-05-11T08:29:03.639Z,1
2023-05-11T08:30:12.205Z,1
2023-05-11T08:31:20.577Z,1.9
2023-05-11T08:32:28.984Z,1.9
2023-05-11T08:33:38.524Z,1.9
2023-05-11T08:34:45.854Z,1.2
2023-05-11T08:35:54.130Z,1.2
2023-05-11T08:37:02.470Z,1.2
2023-05-11T08:38:11.035Z,1
2023-05-11T08:39:28.490Z,1
2023-05-11T08:40:27.884Z,1
2023-05-11T08:41:36.410Z,0.9
2023-05-11T08:42:44.732Z,0.9
2023-05-11T08:43:53.074Z,0.9
2023-05-11T08:45:01.590Z,3.2
2023-05-11T08:46:09.950Z,3.2
2023-05-11T08:47:23.018Z,3.2
2023-05-11T08:48:26.773Z,1.1
2023-05-11T08:49:35.114Z,1.1
2023-05-11T08:50:43.451Z,1.1
2023-05-11T08:51:51.975Z,0.8
2023-05-11T08:53:00.301Z,0.8
2023-05-11T08:54:08.640Z,0.8
2023-05-11T08:55:17.376Z,0.7
2023-05-11T08:56:25.514Z,0.7
2023-05-11T08:57:33.835Z,0.7
2023-05-11T08:58:42.373Z,0.7
2023-05-11T08:59:50.876Z,0.7
2023-05-11T09:00:59.241Z,0.7
2023-05-11T09:02:07.781Z,0.9
2023-05-11T09:03:16.071Z,0.9
2023-05-11T09:04:24.386Z,0.9
2023-05-11T09:05:33.004Z,0.8
2023-05-11T09:06:41.293Z,0.8
2023-05-11T09:07:49.621Z,0.8
2023-05-11T09:08:58.149Z,0.9
2023-05-11T09:10:06.464Z,0.9
2023-05-11T09:11:14.799Z,0.9
2023-05-11T09:12:23.356Z,1
2023-05-11T09:13:31.675Z,1
2023-05-11T09:14:40.014Z,1
2023-05-11T09:15:48.542Z,1
2023-05-11T09:16:56.898Z,1
2023-05-11T09:18:05.418Z,1
2023-05-11T09:19:13.729Z,0.9
2023-05-11T09:20:22.067Z,0.9
2023-05-11T09:21:30.392Z,0.9
2023-05-11T09:22:38.954Z,0.8
2023-05-11T09:23:47.275Z,0.8
2023-05-11T09:24:55.599Z,0.8
2023-05-11T09:26:04.153Z,0.8
2023-05-11T09:27:12.473Z,0.8
2023-05-11T09:29:30.349Z,0.7
2023-05-11T09:30:37.674Z,0.7
2023-05-11T09:31:46.027Z,0.7
2023-05-11T09:32:54.607Z,0.5
2023-05-11T09:34:02.905Z,0.5
2023-05-11T09:35:11.217Z,0.5
2023-05-11T09:36:19.781Z,0.5
2023-05-11T09:37:28.115Z,0.5
2023-05-11T09:38:36.496Z,0.5
2023-05-11T09:40:53.361Z,0.5
2023-05-11T09:42:01.672Z,0.5
2023-05-11T09:43:10.209Z,0.4
2023-05-11T09:44:18.604Z,0.4
2023-05-11T09:45:26.959Z,0.4
2023-05-11T09:46:35.592Z,0.9
2023-05-11T09:47:43.886Z,0.9
2023-05-11T09:48:52.212Z,0.9
2023-05-11T09:50:00.822Z,0.9
2023-05-11T09:51:09.131Z,0.9
2023-05-11T09:52:17.481Z,0.9
2023-05-11T09:53:26.681Z,1.3
2023-05-11T09:54:34.353Z,1.3
2023-05-11T09:55:42.713Z,1.3
2023-05-11T09:56:51.263Z,1.3
2023-05-11T09:57:59.607Z,1.3
2023-05-11T09:59:07.943Z,1.3
2023-05-11T10:00:16.550Z,1.5
2023-05-11T10:01:24.872Z,1.5
2023-05-11T10:02:33.206Z,1.5
2023-05-11T10:03:41.841Z,1.1
2023-05-11T10:04:50.066Z,1.1
2023-05-11T10:05:58.445Z,1.1
2023-05-11T10:07:06.937Z,1
2023-05-11T10:08:15.288Z,1
2023-05-11T10:09:23.637Z,1
2023-05-11T10:10:32.163Z,1.5
2023-05-11T10:11:40.521Z,1.5
2023-05-11T10:12:48.857Z,1.5
2023-05-11T10:13:57.393Z,1.5
2023-05-11T10:15:05.945Z,1.5
2023-05-11T10:16:14.262Z,1.5
2023-05-11T10:17:22.722Z,1.5
2023-05-11T10:18:31.075Z,1.5
2023-05-11T10:19:39.370Z,1.5
2023-05-11T10:20:47.920Z,1.7
2023-05-11T10:21:56.395Z,1.7
2023-05-11T10:23:04.613Z,1.7
2023-05-11T10:24:13.161Z,1.9
2023-05-11T10:25:21.487Z,1.9
2023-05-11T10:26:29.846Z,1.9
2023-05-11T10:27:38.428Z,2.2
2023-05-11T10:28:46.771Z,2.2
2023-05-11T10:29:55.082Z,2.2
2023-05-11T10:31:03.631Z,2.2
2023-05-11T10:32:12.024Z,2.2
2023-05-11T10:33:20.334Z,2.2
2023-05-11T10:34:29.289Z,2.4
2023-05-11T10:35:37.244Z,2.4
2023-05-11T10:36:45.617Z,2.4
2023-05-11T10:37:54.205Z,2.4
2023-05-11T10:39:02.528Z,2.4
2023-05-11T10:40:10.883Z,2.4
2023-05-11T10:41:19.423Z,2.3
2023-05-11T10:42:27.761Z,2.3
2023-05-11T10:43:36.112Z,2.3
2023-05-11T10:44:44.667Z,2.9
2023-05-11T10:45:53.023Z,2.9
2023-05-11T10:47:01.355Z,2.9
2023-05-11T10:48:09.904Z,2.9
2023-05-11T10:49:18.232Z,2.9
2023-05-11T10:50:26.571Z,2.9
2023-05-11T10:51:35.159Z,1.3
2023-05-11T10:52:43.492Z,1.3
2023-05-11T10:53:51.853Z,1.3
2023-05-11T10:55:00.410Z,2
2023-05-11T10:56:08.748Z,2
2023-05-11T10:57:17.114Z,2
2023-05-11T10:58:25.678Z,1.8
2023-05-11T10:59:34.017Z,1.8
2023-05-11T11:00:42.406Z,1.8
2023-05-11T11:01:51.054Z,2.3
2023-05-11T11:02:59.335Z,2.3
2023-05-11T11:04:07.632Z,2.3
2023-05-11T11:05:16.337Z,2.1
2023-05-11T11:06:24.646Z,2.1
2023-05-11T11:07:32.987Z,2.1
2023-05-11T11:08:41.578Z,2.3
2023-05-11T11:09:49.953Z,2.3
2023-05-11T11:10:58.259Z,2.3
2023-05-11T11:12:06.833Z,2.4
2023-05-11T11:13:15.167Z,2.4
2023-05-11T11:14:23.516Z,2.4
2023-05-11T11:15:32.110Z,2.2
2023-05-11T11:16:40.441Z,2.2
2023-05-11T11:17:48.799Z,2.2
2023-05-11T11:18:57.359Z,2.7
2023-05-11T11:20:05.682Z,2.7
2023-05-11T11:21:14.102Z,2.7
2023-05-11T11:22:22.670Z,1.7
2023-05-11T11:23:31.021Z,1.7
2023-05-11T11:24:39.375Z,1.7
2023-05-11T11:25:47.960Z,2
2023-05-11T11:26:56.275Z,2
2023-05-11T11:28:04.665Z,2
2023-05-11T11:29:13.249Z,2.6
2023-05-11T11:30:21.581Z,2.6
2023-05-11T11:31:29.983Z,2.6
2023-05-11T11:32:38.525Z,2.1
2023-05-11T11:33:46.853Z,2.1
2023-05-11T11:34:55.206Z,2.1
2023-05-11T11:36:03.763Z,1.6
2023-05-11T11:37:12.098Z,1.6
2023-05-11T11:38:20.460Z,1.6
2023-05-11T11:39:29.057Z,2
2023-05-11T11:40:47.078Z,2
2023-05-11T11:41:45.797Z,2
2023-05-11T11:42:54.338Z,1.7
2023-05-11T11:44:02.706Z,1.7
2023-05-11T11:45:11.061Z,1.7
2023-05-11T11:46:19.634Z,2.7
2023-05-11T11:47:28.033Z,2.7
2023-05-11T11:48:36.420Z,2.7
2023-05-11T11:49:44.921Z,3
2023-05-11T11:50:53.275Z,3
2023-05-11T11:52:01.602Z,3
2023-05-11T11:53:10.188Z,3
2023-05-11T11:54:18.549Z,3
2023-05-11T11:55:26.942Z,3
2023-05-11T11:56:35.467Z,2.4
2023-05-11T11:57:43.848Z,2.4
2023-05-11T11:58:52.205Z,2.4
2023-05-11T12:00:00.754Z,3
2023-05-11T12:01:09.136Z,3
2023-05-11T12:02:17.529Z,3
2023-05-11T12:03:26.163Z,3.8
2023-05-11T12:04:34.483Z,3.8
2023-05-11T12:05:42.788Z,3.8
2023-05-11T12:06:51.383Z,3.9
2023-05-11T12:07:59.710Z,3.9
2023-05-11T12:09:08.108Z,3.9
2023-05-11T12:10:16.688Z,4.7
2023-05-11T12:11:25.016Z,4.7
2023-05-11T12:12:33.365Z,4.7
2023-05-11T12:13:41.967Z,5.6
2023-05-11T12:14:50.387Z,5.6
2023-05-11T12:15:58.705Z,5.6
2023-05-11T12:17:07.949Z,7.3
2023-05-11T12:18:16.347Z,7.3
2023-05-11T12:19:24.717Z,7.3
2023-05-11T12:20:33.299Z,7
2023-05-11T12:21:41.697Z,7
2023-05-11T12:22:50.058Z,7
2023-05-11T12:23:58.620Z,7.5
2023-05-11T12:25:06.998Z,7.5
2023-05-11T12:26:15.338Z,7.5
2023-05-11T12:27:23.910Z,9.1
2023-05-11T12:28:32.274Z,9.1
2023-05-11T12:29:40.657Z,9.1
2023-05-11T12:30:49.333Z,9.3
2023-05-11T12:31:57.693Z,9.3
2023-05-11T12:33:06.121Z,9.3
2023-05-11T12:34:14.665Z,10.7
2023-05-11T12:35:23.019Z,10.7
2023-05-11T12:36:31.363Z,10.7
2023-05-11T12:37:39.940Z,10
2023-05-11T12:38:48.289Z,10
2023-05-11T12:39:56.692Z,10
2023-05-11T12:41:05.262Z,9.1
2023-05-11T12:42:13.612Z,9.1
2023-05-11T12:43:21.977Z,9.1
2023-05-11T12:44:30.576Z,8.7
2023-05-11T12:45:39.008Z,8.7
2023-05-11T12:46:47.385Z,8.7
2023-05-11T12:47:55.981Z,6.7
2023-05-11T12:49:04.287Z,6.7
2023-05-11T12:50:12.649Z,6.7
2023-05-11T12:51:21.248Z,5.7
2023-05-11T12:52:29.554Z,5.7
2023-05-11T12:53:37.932Z,5.7
2023-05-11T12:54:46.509Z,5.1
2023-05-11T12:55:54.866Z,5.1
2023-05-11T12:57:03.268Z,5.1
2023-05-11T12:58:11.857Z,4.9
2023-05-11T12:59:20.227Z,4.9
2023-05-11T13:00:28.568Z,4.9
2023-05-11T13:01:37.261Z,4.2
2023-05-11T13:02:45.581Z,4.2
2023-05-11T13:03:53.984Z,4.2
2023-05-11T13:05:02.435Z,1.9
2023-05-11T13:06:10.766Z,1.9
2023-05-11T13:07:19.127Z,1.9
2023-05-11T13:08:27.701Z,1.9
2023-05-11T13:09:36.055Z,1.9
2023-05-11T13:10:44.412Z,1.9
2023-05-11T13:11:52.991Z,2
2023-05-11T13:13:01.397Z,2
2023-05-11T13:14:09.829Z,2
2023-05-11T13:15:18.475Z,2.3
2023-05-11T13:16:26.837Z,2.3
2023-05-11T13:17:35.119Z,2.3
2023-05-11T13:18:43.684Z,2.3
2023-05-11T13:19:52.026Z,2.3
2023-05-11T13:21:00.364Z,2.3
2023-05-11T13:22:08.947Z,2.5
2023-05-11T13:23:17.304Z,2.5
2023-05-11T13:24:25.677Z,2.5
2023-05-11T13:25:34.229Z,3
2023-05-11T13:26:42.621Z,3
2023-05-11T13:27:50.984Z,3
2023-05-11T13:29:09.957Z,3.2
2023-05-11T13:30:08.019Z,3.2
2023-05-11T13:31:16.440Z,3.2
2023-05-11T13:32:24.926Z,3.6
2023-05-11T13:33:33.320Z,3.6
2023-05-11T13:34:41.683Z,3.6
2023-05-11T13:35:50.223Z,3.4
2023-05-11T13:36:58.625Z,3.4
2023-05-11T13:38:06.972Z,3.4
2023-05-11T13:39:15.568Z,3
2023-05-11T13:40:23.946Z,3
2023-05-11T13:41:32.339Z,3
2023-05-11T13:42:40.882Z,2.6
2023-05-11T13:43:49.292Z,2.6
2023-05-11T13:44:57.656Z,2.6
2023-05-11T13:46:06.272Z,1.7
2023-05-11T13:47:14.692Z,1.7
2023-05-11T13:48:23.024Z,1.7
2023-05-11T13:49:31.647Z,1.9
2023-05-11T13:50:39.996Z,1.9
2023-05-11T13:51:48.334Z,1.9
2023-05-11T13:52:56.880Z,2
2023-05-11T13:54:05.237Z,2
2023-05-11T13:55:13.603Z,2
2023-05-11T13:56:22.310Z,2.1
2023-05-11T13:57:30.530Z,2.1
2023-05-11T13:58:38.956Z,2.1
2023-05-11T13:59:47.573Z,2
2023-05-11T14:01:07.010Z,2
2023-05-11T14:02:04.412Z,2
2023-05-11T14:03:12.896Z,2.1
2023-05-11T14:04:21.169Z,2.1
2023-05-11T14:05:29.560Z,2.1
2023-05-11T14:06:38.106Z,2.1
2023-05-11T14:07:48.022Z,2.1
2023-05-11T14:08:54.873Z,2.1
2023-05-11T14:10:03.515Z,1.8
2023-05-11T14:11:11.856Z,1.8
2023-05-11T14:12:20.216Z,1.8
2023-05-11T14:13:28.842Z,1.3
2023-05-11T14:14:37.197Z,1.3
2023-05-11T14:15:45.544Z,1.3
2023-05-11T14:16:54.100Z,1.6
2023-05-11T14:18:02.564Z,1.6
2023-05-11T14:19:11.008Z,1.6
2023-05-11T14:20:19.457Z,1.4
2023-05-11T14:21:27.866Z,1.4
2023-05-11T14:22:36.167Z,1.4
2023-05-11T14:23:53.907Z,1.4
2023-05-11T14:24:53.094Z,1.4
2023-05-11T14:26:01.433Z,1.4
2023-05-11T14:27:09.999Z,1.5
2023-05-11T14:28:18.371Z,1.5
2023-05-11T14:29:26.724Z,1.5
2023-05-11T14:30:35.308Z,1.4
2023-05-11T14:31:43.658Z,1.4
2023-05-11T14:32:52.109Z,1.4
2023-05-11T14:34:00.577Z,1.1
2023-05-11T14:35:08.974Z,1.1
2023-05-11T14:36:17.302Z,1.1
2023-05-11T14:37:25.957Z,1.7
2023-05-11T14:38:34.258Z,1.7
2023-05-11T14:39:42.612Z,1.7
2023-05-11T14:40:52.467Z,1.6
2023-05-11T14:41:59.569Z,1.6
2023-05-11T14:43:07.952Z,1.6
2023-05-11T14:44:16.513Z,1.6
2023-05-11T14:45:27.696Z,1.6
2023-05-11T14:46:36.109Z,1.6
2023-05-11T14:47:44.712Z,1.7
2023-05-11T14:48:53.000Z,1.7
2023-05-11T14:50:01.358Z,1.7
2023-05-11T14:51:09.940Z,2.1
2023-05-11T14:52:18.298Z,2.1
2023-05-11T14:53:26.677Z,2.1
2023-05-11T14:54:35.210Z,2
2023-05-11T14:55:43.805Z,2
2023-05-11T14:56:52.200Z,2
2023-05-11T14:58:00.747Z,1.9
2023-05-11T14:59:09.098Z,1.9
2023-05-11T15:00:17.957Z,1.9
2023-05-11T15:01:26.615Z,1.9
2023-05-11T15:02:34.975Z,1.9
2023-05-11T15:03:43.303Z,1.9
2023-05-11T15:04:51.928Z,2.1
2023-05-11T15:06:00.258Z,2.1
2023-05-11T15:07:08.627Z,2.1
2023-05-11T15:08:28.785Z,1.9
2023-05-11T15:09:25.592Z,1.9
2023-05-11T15:10:34.034Z,1.9
2023-05-11T15:11:42.662Z,2.2
2023-05-11T15:46:05.661Z,0
2023-05-11T15:47:13.889Z,0
2023-05-11T15:48:22.238Z,0
2023-05-11T15:49:30.831Z,2.4
2023-05-11T15:50:39.154Z,2.4
2023-05-11T15:51:47.495Z,2.4
2023-05-11T15:52:56.095Z,2.6
2023-05-11T15:54:04.457Z,2.6
2023-05-11T15:55:12.819Z,2.6
2023-05-11T15:56:21.330Z,2.6
2023-05-11T15:57:29.716Z,2.6
2023-05-11T15:58:38.077Z,2.6
2023-05-11T15:59:46.682Z,2.4
2023-05-11T16:00:56.237Z,2.4
2023-05-11T16:02:03.530Z,2.4
2023-05-11T16:04:20.356Z,2.5
2023-05-11T16:05:28.730Z,2.5
2023-05-11T16:06:37.296Z,2.3
2023-05-11T16:07:45.742Z,2.3
2023-05-11T16:08:54.306Z,2.3
2023-05-11T16:10:02.864Z,2.6
2023-05-11T16:11:11.548Z,2.6
2023-05-11T16:12:28.150Z,2.6
2023-05-11T16:13:36.703Z,2.5
2023-05-11T16:14:45.032Z,2.5
2023-05-11T16:15:53.455Z,2.5
2023-05-11T16:17:02.078Z,2.6
2023-05-11T16:18:10.482Z,2.6
2023-05-11T16:19:18.767Z,2.6
2023-05-11T16:20:27.335Z,2.3
2023-05-11T16:21:35.680Z,2.3
2023-05-11T16:22:44.026Z,2.3
2023-05-11T16:23:52.575Z,11.7
2023-05-11T16:25:00.915Z,11.7
2023-05-11T16:26:09.284Z,11.7
2023-05-11T16:27:17.828Z,2.8
2023-05-11T16:28:26.163Z,2.8
2023-05-11T16:29:34.567Z,2.8